Flight Track Log - Related Links

Times and Time Zones

All times are in EDT time to prevent confusion due to time zone crossing. See the N830QS flight status page for this flight to view local times or setup timezone preferences in your user account.

Time Position Orientation Groundspeed Altitude Reporting Facility
EDT Latitude Longitude Course Direction KTS MPH feet Rate Location/Type
Thu 07:38:16 PM 34.4261 -119.8614 266° West 174 200 600  Level Los Angeles Center
Thu 07:38:59 PM 34.4228 -119.9147 266° West 210 242 2,400 2,480 Climbing Los Angeles Center
Thu 07:39:31 PM 34.4167 -119.9589 260° West 249 287 3,700 2,617 Climbing Los Angeles Center
Thu 07:40:33 PM 34.4128 -120.0483 267° West 262 302 6,500 2,661 Climbing Los Angeles Center
Thu 07:41:35 PM 34.4211 -120.1497 276° West 302 348 9,200 2,565 Climbing Los Angeles Center
Thu 07:42:37 PM 34.4728 -120.2317 307° West 312 359 11,800 2,371 Climbing Los Angeles Center
Thu 07:43:39 PM 34.5481 -120.2856 329° Northwest 316 364 14,100 2,177 Climbing Los Angeles Center
Thu 07:44:41 PM 34.6308 -120.3239 339° North 331 381 16,300 2,129 Climbing Los Angeles Center
Thu 07:45:43 PM 34.7344 -120.3767 337° Northwest 341 392 18,500 2,081 Climbing Los Angeles Center
Thu 07:46:45 PM 34.8244 -120.4214 338° Northwest 352 405 20,600 1,839 Climbing Los Angeles Center
Thu 07:47:47 PM 34.9156 -120.4675 337° Northwest 359 413 22,300 1,548 Climbing Los Angeles Center
Thu 07:48:49 PM 35.0103 -120.5153 338° Northwest 370 426 23,800 1,500 Climbing Los Angeles Center
Thu 07:49:51 PM 35.1086 -120.5644 338° Northwest 383 441 25,400 1,065 Climbing Los Angeles Center
Thu 07:50:53 PM 35.2300 -120.6267 337° Northwest 398 458 26,000 288 Climbing Los Angeles Center
Thu 07:51:56 PM 35.3308 -120.6789 337° Northwest 395 455 26,000  Level Los Angeles Center
Thu 07:52:58 PM 35.4308 -120.7286 338° Northwest 389 448 26,000  Level Los Angeles Center
Thu 07:54:00 PM 35.5319 -120.7792 338° Northwest 392 451 26,000  Level Los Angeles Center
Thu 07:55:02 PM 35.6464 -120.8383 337° Northwest 379 436 26,000  Level Los Angeles Center
Thu 07:55:48 PM 35.7044 -120.8667 338° Northwest 384 442 26,000  Level Oakland Center
Thu 07:56:49 PM 35.8181 -120.9286 336° Northwest 372 428 26,000  Level Oakland Center
Thu 07:57:51 PM 35.9189 -120.9803 337° Northwest 386 444 26,000  Level Oakland Center
Thu 07:58:52 PM 36.0172 -121.0400 334° Northwest 397 457 26,000  Level Oakland Center
Thu 07:59:54 PM 36.1044 -121.1186 324° Northwest 395 455 26,000 -49 Level Oakland Center
Thu 08:00:55 PM 36.1931 -121.1967 325° Northwest 393 452 25,900 -934 Descending Oakland Center
Thu 08:01:56 PM 36.2819 -121.2733 325° Northwest 391 450 24,100 -1,902 Descending Oakland Center
Thu 08:02:58 PM 36.3703 -121.3472 326° Northwest 385 443 22,000 -1,951 Descending Oakland Center
Thu 08:03:59 PM 36.4539 -121.4203 325° Northwest 373 429 20,100 -1,902 Descending Oakland Center
Thu 08:05:01 PM 36.5378 -121.4969 324° Northwest 374 430 18,100 -2,293 Descending Oakland Center
Thu 08:06:02 PM 36.6564 -121.5469 341° North 374 430 15,400 -2,459 Descending Oakland Center
Thu 08:07:03 PM 36.7547 -121.5750 347° North 368 423 13,100 -2,244 Descending Oakland Center
Thu 08:08:05 PM 36.8450 -121.6036 346° North 349 402 10,800 -2,049 Descending Oakland Center
Thu 08:09:06 PM 36.9250 -121.6342 343° North 322 371 8,900 -1,415 Descending Oakland Center
Thu 08:10:08 PM 37.0003 -121.6603 345° North 300 345 7,900 -927 Descending Oakland Center
Thu 08:11:09 PM 37.0683 -121.6814 346° North 273 314 7,000 -976 Descending Oakland Center
Thu 08:12:11 PM 37.1306 -121.7028 345° North 246 283 5,900 -1,366 Descending Oakland Center
Thu 08:13:12 PM 37.1825 -121.7331 335° Northwest 223 257 4,200 -1,171 Descending Oakland Center
Thu 08:14:14 PM 37.2211 -121.7781 317° Northwest 202 232 3,500 -829 Descending Oakland Center
Thu 08:15:15 PM 37.2664 -121.8289 318° Northwest 189 217 2,500 -1,024 Descending Oakland Center
Thu 08:16:17 PM 37.3019 -121.8672 319° Northwest 179 206 1,400 -878 Descending Oakland Center
Thu 08:17:18 PM 37.3278 -121.8936 321° Northwest 141 162 700 -634 Descending Oakland Center
Thu 08:18:20 PM 37.3517 -121.9192 320° Northwest 125 144 100 -581 Descending Oakland Center
Thu 08:20:00 PM 37.3500 -121.9167 North  Level FlightAware Approximate
Thu 08:27:00 PM 37.3627 -121.9291 North  Level Estimated

Login

Don't have an account? Register now (free) for customized features, flight alerts, and more!